createdAt,value
2018-09-01T00:00:37.349Z,73.83
2018-09-01T00:01:37.244Z,73.63
2018-09-01T00:02:37.141Z,74.49
2018-09-01T00:03:37.050Z,74.49
2018-09-01T00:04:36.950Z,74.02
2018-09-01T00:05:36.846Z,73.54
2018-09-01T00:06:36.753Z,74.40
2018-09-01T00:07:36.656Z,74.21
2018-09-01T00:08:36.550Z,73.73
2018-09-01T00:09:36.450Z,73.83
2018-09-01T00:10:36.355Z,73.83
2018-09-01T00:11:36.255Z,73.73
2018-09-01T00:12:36.155Z,73.63
2018-09-01T00:13:36.052Z,74.02
2018-09-01T00:14:35.953Z,74.59
2018-09-01T00:15:35.852Z,74.49
2018-09-01T00:16:35.756Z,74.02
2018-09-01T00:17:35.653Z,73.54
2018-09-01T00:18:35.552Z,73.73
2018-09-01T00:19:35.474Z,73.54
2018-09-01T00:20:35.360Z,74.11
2018-09-01T00:21:35.258Z,74.02
2018-09-01T00:22:35.161Z,73.54
2018-09-01T00:23:35.057Z,73.44
2018-09-01T00:24:34.958Z,73.35
2018-09-01T00:25:34.856Z,73.44
2018-09-01T00:26:34.769Z,73.07
2018-09-01T00:27:34.662Z,73.25
2018-09-01T00:28:34.569Z,73.63
2018-09-01T00:29:34.465Z,73.44
2018-09-01T00:30:34.390Z,74.78
2018-09-01T00:31:34.259Z,74.59
2018-09-01T00:32:34.176Z,74.49
2018-09-01T00:33:34.069Z,74.11
2018-09-01T00:34:33.963Z,73.73
2018-09-01T00:35:33.860Z,72.97
2018-09-01T00:36:33.767Z,73.63
2018-09-01T00:37:33.662Z,73.07
2018-09-01T00:38:33.565Z,72.83
2018-09-01T00:39:33.473Z,72.64
2018-09-01T00:40:33.366Z,72.64
2018-09-01T00:41:33.262Z,72.55
2018-09-01T00:42:33.158Z,72.45
2018-09-01T00:43:33.068Z,72.74
2018-09-01T00:44:32.968Z,72.45
2018-09-01T00:45:32.865Z,71.78
2018-09-01T00:46:32.768Z,72.74
2018-09-01T00:47:32.668Z,71.78
2018-09-01T00:48:32.566Z,71.50
2018-09-01T00:49:32.463Z,71.88
2018-09-01T00:50:32.375Z,71.41
2018-09-01T00:51:32.271Z,71.59
2018-09-01T00:52:32.163Z,71.02
2018-09-01T00:53:32.072Z,70.83
2018-09-01T00:54:31.970Z,71.59
2018-09-01T00:55:31.868Z,71.41
2018-09-01T00:56:31.762Z,71.59
2018-09-01T00:57:31.920Z,71.21
2018-09-01T00:58:31.569Z,72.17
2018-09-01T00:59:31.465Z,71.50
2018-09-01T01:00:31.380Z,72.07
2018-09-01T01:01:31.276Z,71.59
2018-09-01T01:02:31.168Z,71.88
2018-09-01T01:03:31.066Z,71.88
2018-09-01T01:04:30.978Z,72.93
2018-09-01T01:05:30.875Z,71.88
2018-09-01T01:06:30.770Z,71.88
2018-09-01T01:07:30.680Z,72.64
2018-09-01T01:08:30.571Z,72.07
2018-09-01T01:09:30.467Z,71.69
2018-09-01T01:10:30.374Z,72.17
2018-09-01T01:11:30.281Z,72.45
2018-09-01T01:12:30.175Z,72.17
2018-09-01T01:13:30.070Z,72.36
2018-09-01T01:14:29.976Z,72.55
2018-09-01T01:15:29.866Z,72.74
2018-09-01T01:16:29.775Z,72.17
2018-09-01T01:17:29.686Z,72.13
2018-09-01T01:18:29.576Z,72.13
2018-09-01T01:19:29.473Z,72.03
2018-09-01T01:20:29.373Z,71.56
2018-09-01T01:21:29.282Z,70.70
2018-09-01T01:22:29.180Z,71.75
2018-09-01T01:23:29.077Z,71.27
2018-09-01T01:24:28.971Z,70.89
2018-09-01T01:25:28.884Z,72.13
2018-09-01T01:26:28.779Z,72.03
2018-09-01T01:27:28.675Z,72.03
2018-09-01T01:28:28.580Z,72.03
2018-09-01T01:29:28.477Z,72.03
2018-09-01T01:30:28.371Z,71.94
2018-09-01T01:31:28.272Z,71.66
2018-09-01T01:32:28.185Z,71.37
2018-09-01T01:33:28.082Z,71.75
2018-09-01T01:34:27.974Z,71.94
2018-09-01T01:35:27.870Z,71.84
2018-09-01T01:36:27.782Z,72.23
2018-09-01T01:37:27.679Z,71.84
2018-09-01T01:38:27.600Z,71.75
2018-09-01T01:39:27.476Z,71.66
2018-09-01T01:40:27.381Z,71.08
2018-09-01T01:41:27.278Z,71.75
2018-09-01T01:42:27.175Z,71.84
2018-09-01T01:43:27.084Z,71.52
2018-09-01T01:44:26.977Z,71.75
2018-09-01T01:45:26.868Z,71.52
2018-09-01T01:46:26.773Z,71.62
2018-09-01T01:47:26.682Z,71.04
2018-09-01T01:48:26.583Z,71.14
2018-09-01T01:49:26.515Z,71.43
2018-09-01T01:50:26.372Z,71.91
2018-09-01T01:51:26.285Z,71.62
2018-09-01T01:52:26.181Z,71.52
2018-09-01T01:53:26.078Z,71.33
2018-09-01T01:54:25.973Z,71.62
2018-09-01T01:55:25.871Z,71.81
2018-09-01T01:56:25.777Z,71.81
2018-09-01T01:57:25.674Z,70.95
2018-09-01T01:58:25.575Z,71.52
2018-09-01T01:59:25.475Z,71.81
2018-09-01T02:00:25.376Z,71.33
2018-09-01T02:01:25.273Z,71.91
2018-09-01T02:02:25.168Z,71.33
2018-09-01T02:03:25.064Z,71.23
2018-09-01T02:04:24.978Z,71.23
2018-09-01T02:05:24.875Z,71.91
2018-09-01T02:06:24.770Z,71.72
2018-09-01T02:07:24.664Z,71.23
2018-09-01T02:08:24.576Z,71.14
2018-09-01T02:09:24.487Z,71.33
2018-09-01T02:10:24.372Z,71.52
2018-09-01T02:11:24.268Z,71.52
2018-09-01T02:12:24.161Z,71.91
2018-09-01T02:13:24.075Z,72.00
2018-09-01T02:14:23.970Z,71.23
2018-09-01T02:15:23.867Z,71.23
2018-09-01T02:16:23.759Z,71.43
2018-09-01T02:17:23.656Z,71.62
2018-09-01T02:18:23.566Z,70.67
2018-09-01T02:19:23.463Z,71.33
2018-09-01T02:20:23.365Z,70.86
2018-09-01T02:21:23.261Z,71.01
2018-09-01T02:22:23.155Z,70.63
2018-09-01T02:23:23.062Z,71.01
2018-09-01T02:24:22.964Z,71.11
2018-09-01T02:25:22.860Z,70.34
2018-09-01T02:26:22.755Z,70.34
2018-09-01T02:27:22.663Z,69.96
2018-09-01T02:28:22.556Z,70.34
2018-09-01T02:29:22.452Z,69.87
2018-09-01T02:30:22.369Z,69.39
2018-09-01T02:31:22.252Z,69.58
2018-09-01T02:32:22.162Z,69.58
2018-09-01T02:33:22.058Z,69.77
2018-09-01T02:34:21.949Z,69.77
2018-09-01T02:35:21.846Z,69.77
2018-09-01T02:36:21.748Z,69.96
2018-09-01T02:37:21.905Z,69.20
2018-09-01T02:38:21.564Z,69.58
2018-09-01T02:39:21.448Z,69.58
2018-09-01T02:40:21.341Z,69.96
2018-09-01T02:41:21.238Z,69.10
2018-09-01T02:42:21.150Z,69.20
2018-09-01T02:43:21.047Z,69.01
2018-09-01T02:44:20.948Z,68.72
2018-09-01T02:45:20.847Z,68.91
2018-09-01T02:46:20.735Z,69.10
2018-09-01T02:47:20.643Z,68.72
2018-09-01T02:48:20.545Z,69.29
2018-09-01T02:49:20.443Z,69.39
2018-09-01T02:50:20.342Z,69.39
2018-09-01T02:51:20.239Z,69.20
2018-09-01T02:52:20.134Z,69.10
2018-09-01T02:53:20.038Z,69.20
2018-09-01T02:54:19.939Z,69.29
2018-09-01T02:55:19.836Z,68.91
2018-09-01T02:56:19.729Z,69.17
2018-09-01T02:57:19.625Z,68.91
2018-09-01T02:58:19.535Z,69.01
2018-09-01T02:59:19.428Z,69.01
2018-09-01T03:00:19.350Z,68.82
2018-09-01T03:01:19.226Z,69.17
2018-09-01T03:02:19.123Z,69.68
2018-09-01T03:03:19.022Z,69.35
2018-09-01T03:04:18.932Z,69.17
2018-09-01T03:05:18.828Z,69.54
2018-09-01T03:06:18.723Z,69.45
2018-09-01T03:07:18.619Z,69.45
2018-09-01T03:08:18.511Z,68.78
2018-09-01T03:09:18.420Z,68.88
2018-09-01T03:10:18.321Z,68.98
2018-09-01T03:11:18.218Z,68.78
2018-09-01T03:12:18.133Z,68.12
2018-09-01T03:13:18.007Z,67.45
2018-09-01T03:14:17.907Z,67.16
2018-09-01T03:15:17.815Z,67.07
2018-09-01T03:16:17.717Z,67.16
2018-09-01T03:17:17.914Z,67.07
2018-09-01T03:18:17.503Z,67.07
2018-09-01T03:19:17.407Z,67.16
2018-09-01T03:20:17.313Z,66.97
2018-09-01T03:21:17.210Z,66.78
2018-09-01T03:22:17.109Z,66.69
2018-09-01T03:23:17.006Z,67.26
2018-09-01T03:24:16.898Z,67.07
2018-09-01T03:25:16.795Z,67.55
2018-09-01T03:26:16.708Z,67.16
2018-09-01T03:27:16.608Z,66.88
2018-09-01T03:28:16.498Z,66.69
2018-09-01T03:29:16.394Z,67.83
2018-09-01T03:30:16.290Z,66.69
2018-09-01T03:31:16.186Z,66.69
2018-09-01T03:32:16.099Z,66.88
2018-09-01T03:33:15.995Z,66.69
2018-09-01T03:34:15.890Z,66.69
2018-09-01T03:35:15.787Z,67.07
2018-09-01T03:36:15.687Z,66.97
2018-09-01T03:37:15.586Z,67.07
2018-09-01T03:38:15.483Z,66.88
2018-09-01T03:39:15.388Z,66.88
2018-09-01T03:40:15.284Z,66.50
2018-09-01T03:41:15.178Z,66.69
2018-09-01T03:42:15.082Z,67.64
2018-09-01T03:43:14.982Z,66.88
2018-09-01T03:44:14.870Z,67.45
2018-09-01T03:45:14.781Z,67.35
2018-09-01T03:46:14.685Z,67.45
2018-09-01T03:47:14.820Z,67.64
2018-09-01T03:48:14.471Z,68.12
2018-09-01T03:49:14.367Z,67.74
2018-09-01T03:50:14.262Z,67.45
2018-09-01T03:51:14.175Z,67.93
2018-09-01T03:52:14.072Z,67.74
2018-09-01T03:53:13.969Z,67.83
2018-09-01T03:54:13.864Z,67.64
2018-09-01T03:55:13.763Z,68.88
2018-09-01T03:56:13.653Z,68.78
2018-09-01T03:57:13.550Z,68.69
2018-09-01T03:58:13.462Z,68.78
2018-09-01T03:59:13.359Z,68.59
2018-09-01T04:00:13.266Z,68.50
2018-09-01T04:01:13.148Z,69.17
2018-09-01T04:02:13.047Z,69.74
2018-09-01T04:03:12.945Z,70.02
2018-09-01T04:04:12.862Z,70.12
2018-09-01T04:05:12.758Z,69.83
2018-09-01T04:06:12.645Z,69.35
2018-09-01T04:07:12.542Z,68.40
2018-09-01T04:08:12.443Z,68.50
2018-09-01T04:09:12.340Z,68.78
2018-09-01T04:10:12.240Z,68.98
2018-09-01T04:11:12.147Z,69.23
2018-09-01T04:12:12.039Z,69.07
2018-09-01T04:13:11.938Z,68.65
2018-09-01T04:14:11.837Z,68.18
2018-09-01T04:15:11.734Z,67.51
2018-09-01T04:16:11.628Z,67.89
2018-09-01T04:17:11.536Z,67.89
2018-09-01T04:18:11.430Z,67.89
2018-09-01T04:19:11.327Z,67.80
2018-09-01T04:20:11.228Z,67.89
2018-09-01T04:21:11.125Z,67.74
2018-09-01T04:22:11.023Z,67.61
2018-09-01T04:23:10.916Z,67.89
2018-09-01T04:24:10.828Z,68.08
2018-09-01T04:25:10.727Z,67.80
2018-09-01T04:26:10.637Z,68.12
2018-09-01T04:27:10.767Z,68.84
2018-09-01T04:28:10.412Z,67.99
2018-09-01T04:29:10.306Z,68.75
2018-09-01T04:30:10.209Z,68.69
2018-09-01T04:31:10.117Z,68.88
2018-09-01T04:32:10.088Z,69.74
2018-09-01T04:33:09.906Z,69.83
2018-09-01T04:34:09.806Z,69.17
2018-09-01T04:35:09.705Z,69.64
2018-09-01T04:36:09.604Z,69.93
2018-09-01T04:37:09.815Z,70.40
2018-09-01T04:38:09.402Z,70.78
2018-09-01T04:39:09.301Z,71.17
2018-09-01T04:40:09.199Z,71.36
2018-09-01T04:41:09.095Z,71.26
2018-09-01T04:42:09.000Z,70.88
2018-09-01T04:43:08.893Z,69.83
2018-09-01T04:44:08.803Z,68.88
2018-09-01T04:45:08.694Z,68.78
2018-09-01T04:46:08.591Z,67.93
2018-09-01T04:47:08.537Z,67.93
2018-09-01T04:48:08.389Z,68.15
2018-09-01T04:49:08.284Z,70.15
2018-09-01T04:50:08.193Z,70.92
2018-09-01T04:51:08.087Z,72.53
2018-09-01T04:52:07.980Z,73.77
2018-09-01T04:53:07.878Z,75.05
2018-09-01T04:54:07.781Z,76.20
2018-09-01T04:55:07.678Z,76.96
2018-09-01T04:56:07.583Z,78.20
2018-09-01T04:57:07.480Z,80.11
2018-09-01T04:58:07.374Z,82.11
2018-09-01T04:59:07.273Z,83.20
2018-09-01T05:00:07.190Z,84.16
2018-09-01T05:01:07.241Z,84.53
2018-09-01T05:02:06.973Z,85.30
2018-09-01T05:03:06.872Z,85.87
2018-09-01T05:04:06.771Z,86.44
2018-09-01T05:05:06.681Z,87.30
2018-09-01T05:06:06.581Z,88.87
2018-09-01T05:07:06.477Z,91.16
2018-09-01T05:08:06.367Z,91.74
2018-09-01T05:09:06.277Z,92.93
2018-09-01T05:10:06.175Z,94.46
2018-09-01T05:11:06.071Z,95.61
2018-09-01T05:12:05.965Z,95.98
2018-09-01T05:13:05.875Z,97.28
2018-09-01T05:14:05.775Z,97.75
2018-09-01T05:15:05.670Z,97.94
2018-09-01T05:16:05.570Z,97.66
2018-09-01T05:17:05.479Z,97.85
2018-09-01T05:18:05.372Z,98.47
2018-09-01T05:19:05.269Z,98.38
2018-09-01T05:20:05.182Z,98.57
2018-09-01T05:21:05.079Z,99.62
2018-09-01T05:22:04.973Z,99.19
2018-09-01T05:23:04.882Z,99.10
2018-09-01T05:24:04.822Z,99.19
2018-09-01T05:25:04.671Z,99.67
2018-09-01T05:26:04.575Z,98.61
2018-09-01T05:27:04.484Z,98.90
2018-09-01T05:28:04.376Z,99.29
2018-09-01T05:29:04.275Z,98.90
2018-09-01T05:30:04.180Z,98.52
2018-09-01T05:31:04.083Z,98.52
2018-09-01T05:32:03.991Z,98.61
2018-09-01T05:33:03.887Z,98.38
2018-09-01T05:34:03.781Z,98.19
2018-09-01T05:35:03.689Z,98.14
2018-09-01T05:36:03.590Z,97.85
2018-09-01T05:37:03.490Z,97.23
2018-09-01T05:38:03.403Z,96.94
2018-09-01T05:39:03.295Z,96.47
2018-09-01T05:40:03.198Z,96.32
2018-09-01T05:41:03.099Z,94.59
2018-09-01T05:42:02.994Z,94.26
2018-09-01T05:43:02.904Z,93.78
2018-09-01T05:44:02.841Z,93.21
2018-09-01T05:45:02.719Z,92.68
2018-09-01T05:46:02.604Z,92.58
2018-09-01T05:47:02.817Z,91.52
2018-09-01T05:48:02.415Z,90.70
2018-09-01T05:49:02.323Z,89.99
2018-09-01T05:50:02.213Z,90.42
2018-09-01T05:51:02.123Z,89.46
2018-09-01T05:52:02.027Z,88.98
2018-09-01T05:53:01.932Z,87.96
2018-09-01T05:54:01.831Z,88.06
2018-09-01T05:55:01.744Z,87.92
2018-09-01T05:56:01.635Z,88.93
2018-09-01T05:57:01.844Z,89.26
2018-09-01T05:58:01.441Z,88.25
2018-09-01T05:59:01.351Z,87.29
2018-09-01T06:00:01.244Z,86.81
2018-09-01T06:01:01.152Z,86.47
2018-09-01T06:02:01.052Z,85.61
2018-09-01T06:03:00.960Z,85.07
2018-09-01T06:04:00.874Z,84.88
2018-09-01T06:05:00.773Z,84.50
2018-09-01T06:06:00.727Z,84.25
2018-09-01T06:07:00.586Z,83.58
2018-09-01T06:08:00.485Z,83.77
2018-09-01T06:09:00.395Z,83.92
2018-09-01T06:10:00.289Z,84.74
2018-09-01T06:11:00.198Z,84.07
2018-09-01T06:12:00.105Z,84.30
2018-09-01T06:13:00.001Z,84.16
2018-09-01T06:13:59.915Z,83.67
2018-09-01T06:14:59.828Z,83.19
2018-09-01T06:15:59.717Z,83.00
2018-09-01T06:16:59.626Z,82.56
2018-09-01T06:17:59.596Z,81.88
2018-09-01T06:18:59.436Z,82.37
2018-09-01T06:19:59.343Z,81.84
2018-09-01T06:20:59.253Z,82.81
2018-09-01T06:21:59.146Z,82.65
2018-09-01T06:22:59.054Z,82.56
2018-09-01T06:23:59.018Z,81.83
2018-09-01T06:24:58.947Z,80.77
2018-09-01T06:25:58.776Z,80.77
2018-09-01T06:26:58.686Z,81.06
2018-09-01T06:27:58.603Z,80.48
2018-09-01T06:28:58.500Z,80.73
2018-09-01T06:29:58.451Z,81.84
2018-09-01T06:30:58.306Z,82.61
2018-09-01T06:31:58.213Z,83.15
2018-09-01T06:32:58.196Z,84.30
2018-09-01T06:33:58.022Z,84.30
2018-09-01T06:34:57.933Z,83.73
2018-09-01T06:35:57.843Z,83.19
2018-09-01T06:36:57.753Z,83.63
2018-09-01T06:37:57.645Z,84.01
2018-09-01T06:38:57.554Z,83.39
2018-09-01T06:39:57.468Z,83.58
2018-09-01T06:40:57.376Z,82.76
2018-09-01T06:41:57.271Z,82.96
2018-09-01T06:42:57.205Z,83.29
2018-09-01T06:43:57.085Z,83.09
2018-09-01T06:44:56.995Z,82.37
2018-09-01T06:45:56.909Z,81.79
2018-09-01T06:46:56.806Z,81.46
2018-09-01T06:47:56.711Z,82.82
2018-09-01T06:48:56.620Z,83.84
2018-09-01T06:49:56.530Z,84.75
2018-09-01T06:50:56.436Z,84.75
2018-09-01T06:51:56.337Z,85.24
2018-09-01T06:52:56.248Z,85.67
2018-09-01T06:53:56.156Z,85.38
2018-09-01T06:54:56.065Z,86.11
2018-09-01T06:55:55.959Z,86.11
2018-09-01T06:56:56.117Z,85.72
2018-09-01T06:57:55.779Z,86.16
2018-09-01T06:58:55.703Z,86.21
2018-09-01T06:59:55.589Z,87.21
2018-09-01T07:00:55.502Z,87.35
2018-09-01T07:01:55.403Z,86.10
2018-09-01T07:02:55.297Z,85.57
2018-09-01T07:03:55.211Z,85.13
2018-09-01T07:04:55.119Z,85.80
2018-09-01T07:05:55.019Z,85.27
2018-09-01T07:06:54.929Z,84.06
2018-09-01T07:07:54.832Z,83.14
2018-09-01T07:08:54.789Z,82.65
2018-09-01T07:09:54.644Z,82.17
2018-09-01T07:10:54.555Z,82.12
2018-09-01T07:11:54.483Z,80.77
2018-09-01T07:12:54.368Z,80.68
2018-09-01T07:13:54.261Z,80.48
2018-09-01T07:14:54.172Z,80.48
2018-09-01T07:15:54.085Z,81.06
2018-09-01T07:16:53.993Z,80.48
2018-09-01T07:17:53.887Z,81.60
2018-09-01T07:18:53.795Z,81.75
2018-09-01T07:19:53.711Z,82.53
2018-09-01T07:20:53.631Z,83.87
2018-09-01T07:21:53.514Z,84.12
2018-09-01T07:22:53.423Z,84.99
2018-09-01T07:23:53.327Z,84.47
2018-09-01T07:24:53.237Z,85.24
2018-09-01T07:25:53.151Z,85.14
2018-09-01T07:26:53.046Z,85.33
2018-09-01T07:27:52.952Z,85.14
2018-09-01T07:28:52.861Z,85.24
2018-09-01T07:29:52.773Z,85.71
2018-09-01T07:30:52.929Z,85.62
2018-09-01T07:31:52.582Z,85.52
2018-09-01T07:32:52.492Z,85.62
2018-09-01T07:33:52.383Z,86.19
2018-09-01T07:34:52.291Z,85.81
2018-09-01T07:35:52.205Z,86.33
2018-09-01T07:36:52.118Z,86.05
2018-09-01T07:37:52.014Z,86.05
2018-09-01T07:38:51.927Z,85.18
2018-09-01T07:39:51.826Z,85.95
2018-09-01T07:40:51.724Z,86.24
2018-09-01T07:41:51.642Z,85.95
2018-09-01T07:42:51.546Z,86.05
2018-09-01T07:43:51.439Z,86.05
2018-09-01T07:44:51.352Z,86.05
2018-09-01T07:45:51.259Z,85.75
2018-09-01T07:46:51.151Z,85.28
2018-09-01T07:47:51.069Z,85.95
2018-09-01T07:48:50.974Z,85.89
2018-09-01T07:49:50.875Z,85.18
2018-09-01T07:50:50.779Z,85.66
2018-09-01T07:51:50.692Z,85.57
2018-09-01T07:52:50.588Z,85.66
2018-09-01T07:53:50.500Z,86.24
2018-09-01T07:54:50.404Z,85.85
2018-09-01T07:55:50.299Z,85.85
2018-09-01T07:56:50.207Z,85.85
2018-09-01T07:57:50.110Z,86.52
2018-09-01T07:58:50.022Z,86.24
2018-09-01T07:59:49.923Z,86.09
2018-09-01T08:00:49.821Z,85.89
2018-09-01T08:01:49.727Z,85.80
2018-09-01T08:02:49.636Z,85.99
2018-09-01T08:03:49.541Z,85.80
2018-09-01T08:04:49.446Z,86.32
2018-09-01T08:05:49.341Z,85.65
2018-09-01T08:06:49.251Z,86.04
2018-09-01T08:07:49.166Z,85.55
2018-09-01T08:08:49.073Z,85.55
2018-09-01T08:09:48.968Z,85.69
2018-09-01T08:10:48.876Z,84.50
2018-09-01T08:11:48.771Z,84.83
2018-09-01T08:12:48.679Z,84.59
2018-09-01T08:13:48.627Z,84.78
2018-09-01T08:14:48.489Z,85.27
2018-09-01T08:15:48.394Z,85.65
2018-09-01T08:16:48.291Z,85.41
2018-09-01T08:17:48.201Z,85.13
2018-09-01T08:18:48.100Z,85.61
2018-09-01T08:19:48.012Z,85.99
2018-09-01T08:20:47.920Z,85.89
2018-09-01T08:21:48.061Z,85.51
2018-09-01T08:22:47.720Z,85.80
2018-09-01T08:23:47.634Z,86.13
2018-09-01T08:24:47.530Z,85.41
2018-09-01T08:25:47.441Z,85.36
2018-09-01T08:26:47.340Z,85.22
2018-09-01T08:27:47.243Z,85.07
2018-09-01T08:28:47.153Z,85.27
2018-09-01T08:29:47.054Z,85.55
2018-09-01T08:30:46.961Z,85.27
2018-09-01T08:31:46.855Z,84.78
2018-09-01T08:32:46.765Z,84.98
2018-09-01T08:33:46.756Z,84.69
2018-09-01T08:34:46.567Z,85.55
2018-09-01T08:35:46.483Z,85.17
2018-09-01T08:36:46.378Z,84.98
2018-09-01T08:37:46.285Z,85.46
2018-09-01T08:38:46.194Z,84.83
2018-09-01T08:39:46.096Z,85.11
2018-09-01T08:40:46.007Z,84.34
2018-09-01T08:41:45.899Z,84.54
2018-09-01T08:42:45.808Z,84.16
2018-09-01T08:43:45.712Z,83.77
2018-09-01T08:44:45.609Z,84.63
2018-09-01T08:45:45.524Z,84.44
2018-09-01T08:46:45.431Z,84.44
2018-09-01T08:47:45.326Z,84.44
2018-09-01T08:48:45.236Z,84.63
2018-09-01T08:49:45.132Z,84.92
2018-09-01T08:50:45.041Z,84.73
2018-09-01T08:51:44.955Z,84.25
2018-09-01T08:52:44.853Z,84.25
2018-09-01T08:53:44.754Z,84.39
2018-09-01T08:54:44.653Z,84.10
2018-09-01T08:55:44.566Z,83.42
2018-09-01T08:56:44.810Z,83.81
2018-09-01T08:57:44.372Z,83.91
2018-09-01T08:58:44.282Z,83.81
2018-09-01T08:59:44.183Z,83.23
2018-09-01T09:00:44.084Z,83.14
2018-09-01T09:01:43.995Z,82.75
2018-09-01T09:02:43.892Z,82.94
2018-09-01T09:03:43.797Z,82.75
2018-09-01T09:04:43.695Z,82.31
2018-09-01T09:05:43.661Z,82.27
2018-09-01T09:06:43.514Z,82.31
2018-09-01T09:07:43.416Z,82.98
2018-09-01T09:08:43.324Z,82.50
2018-09-01T09:09:43.226Z,83.08
2018-09-01T09:10:43.137Z,82.50
2018-09-01T09:11:43.097Z,82.60
2018-09-01T09:12:42.949Z,82.50
2018-09-01T09:13:42.848Z,82.41
2018-09-01T09:14:42.754Z,82.50
2018-09-01T09:15:42.649Z,82.31
2018-09-01T09:16:42.555Z,82.65
2018-09-01T09:17:42.470Z,82.46
2018-09-01T09:18:42.474Z,82.75
2018-09-01T09:19:42.276Z,83.14
2018-09-01T09:20:42.180Z,83.04
2018-09-01T09:21:42.075Z,82.98
2018-09-01T09:22:41.984Z,82.70
2018-09-01T09:23:41.886Z,82.41
2018-09-01T09:24:41.794Z,82.35
2018-09-01T09:25:41.700Z,81.68
2018-09-01T09:26:41.597Z,81.81
2018-09-01T09:27:41.512Z,80.94
2018-09-01T09:28:41.419Z,81.14
2018-09-01T09:29:41.320Z,80.27
2018-09-01T09:30:41.224Z,80.08
2018-09-01T09:31:41.130Z,80.37
2018-09-01T09:32:41.025Z,79.64
2018-09-01T09:33:40.939Z,78.71
2018-09-01T09:34:40.958Z,77.63
2018-09-01T09:35:40.740Z,75.02
2018-09-01T09:36:40.905Z,73.03
2018-09-01T09:37:40.560Z,73.35
2018-09-01T09:38:40.457Z,75.53
2018-09-01T09:39:40.371Z,76.24
2018-09-01T09:40:40.280Z,74.64
2018-09-01T09:41:40.173Z,73.22
2018-09-01T09:42:40.081Z,73.67
2018-09-01T09:43:39.993Z,72.36
2018-09-01T09:44:39.902Z,73.58
2018-09-01T09:45:39.802Z,73.46
2018-09-01T09:46:39.710Z,69.68
2018-09-01T09:47:39.616Z,69.36
2018-09-01T09:48:39.525Z,71.16
2018-09-01T09:49:39.439Z,70.52
2018-09-01T09:50:39.346Z,70.72
2018-09-01T09:51:39.241Z,69.88
2018-09-01T09:52:39.149Z,69.68
2018-09-01T09:53:39.056Z,70.07
2018-09-01T09:54:38.966Z,70.42
2018-09-01T09:55:38.878Z,70.78
2018-09-01T09:56:38.777Z,71.45
2018-09-01T09:57:38.683Z,71.45
2018-09-01T09:58:38.595Z,71.58
2018-09-01T09:59:38.505Z,71.64
2018-09-01T10:00:38.414Z,70.78
2018-09-01T10:01:38.329Z,70.29
2018-09-01T10:02:38.230Z,71.70
2018-09-01T10:03:38.137Z,72.28
2018-09-01T10:04:38.032Z,72.15
2018-09-01T10:05:38.021Z,73.11
2018-09-01T10:06:37.858Z,72.73
2018-09-01T10:07:37.762Z,74.24
2018-09-01T10:08:37.671Z,74.37
2018-09-01T10:09:37.580Z,73.89
2018-09-01T10:10:37.489Z,73.83
2018-09-01T10:11:37.389Z,73.15
2018-09-01T10:12:37.298Z,72.28
2018-09-01T10:13:37.205Z,72.67
2018-09-01T10:14:37.114Z,72.52
2018-09-01T10:15:37.028Z,72.13
2018-09-01T10:16:36.936Z,71.55
2018-09-01T10:17:36.834Z,70.78
2018-09-01T10:18:36.746Z,71.12
2018-09-01T10:19:36.645Z,71.90
2018-09-01T10:20:36.560Z,71.48
2018-09-01T10:21:36.721Z,71.67
2018-09-01T10:22:36.378Z,72.15
2018-09-01T10:23:36.271Z,72.06
2018-09-01T10:24:36.179Z,72.15
2018-09-01T10:25:36.092Z,72.34
2018-09-01T10:26:36.012Z,72.25
2018-09-01T10:27:35.912Z,72.44
2018-09-01T10:28:35.821Z,71.96
2018-09-01T10:29:35.713Z,72.15
2018-09-01T10:30:35.624Z,72.25
2018-09-01T10:31:35.548Z,71.32
2018-09-01T10:32:35.445Z,70.94
2018-09-01T10:33:35.355Z,70.64
2018-09-01T10:34:35.253Z,69.04
2018-09-01T10:35:35.157Z,68.04
2018-09-01T10:36:35.066Z,69.10
2018-09-01T10:37:34.980Z,67.85
2018-09-01T10:38:34.943Z,67.27
2018-09-01T10:39:34.782Z,68.43
2018-09-01T10:40:34.690Z,67.85
2018-09-01T10:41:34.597Z,67.78
2018-09-01T10:42:34.506Z,67.97
2018-09-01T10:43:34.419Z,67.97
2018-09-01T10:44:34.319Z,67.72
2018-09-01T10:45:34.225Z,66.75
2018-09-01T10:46:34.132Z,66.66
2018-09-01T10:47:34.047Z,64.72
2018-09-01T10:48:33.954Z,65.43
2018-09-01T10:49:33.863Z,64.18
2018-09-01T10:50:33.760Z,63.79
2018-09-01T10:51:33.666Z,64.08
2018-09-01T10:52:33.576Z,64.53
2018-09-01T10:53:33.500Z,64.63
2018-09-01T10:54:33.397Z,63.95
2018-09-01T10:55:33.300Z,64.34
2018-09-01T10:56:33.198Z,64.92
2018-09-01T10:57:33.109Z,65.59
2018-09-01T10:58:33.019Z,64.14
2018-09-01T10:59:33.077Z,64.43
2018-09-01T11:00:32.840Z,64.53
2018-09-01T11:01:32.995Z,64.53
2018-09-01T11:02:32.640Z,66.17
2018-09-01T11:03:32.553Z,67.04
2018-09-01T11:04:32.464Z,66.85
2018-09-01T11:05:32.391Z,67.08
2018-09-01T11:06:32.283Z,67.24
2018-09-01T11:07:32.187Z,67.33
2018-09-01T11:08:32.087Z,67.72
2018-09-01T11:09:31.996Z,68.59
2018-09-01T11:10:31.903Z,68.49
2018-09-01T11:11:31.821Z,69.07
2018-09-01T11:12:31.725Z,69.07
2018-09-01T11:13:31.633Z,68.78
2018-09-01T11:14:31.543Z,68.59
2018-09-01T11:15:31.435Z,68.17
2018-09-01T11:16:31.344Z,68.10
2018-09-01T11:17:31.306Z,67.56
2018-09-01T11:18:31.169Z,68.24
2018-09-01T11:19:31.073Z,66.69
2018-09-01T11:20:30.984Z,66.36
2018-09-01T11:21:30.890Z,66.17
2018-09-01T11:22:30.787Z,66.94
2018-09-01T11:23:30.700Z,66.75
2018-09-01T11:24:30.622Z,66.59
2018-09-01T11:25:30.514Z,66.05
2018-09-01T11:26:30.423Z,65.30
2018-09-01T11:27:30.381Z,63.66
2018-09-01T11:28:30.246Z,61.79
2018-09-01T11:29:30.157Z,61.63
2018-09-01T11:30:30.066Z,61.82
2018-09-01T11:31:29.959Z,60.85
2018-09-01T11:32:29.868Z,60.69
2018-09-01T11:33:29.783Z,60.27
2018-09-01T11:34:29.690Z,60.75
2018-09-01T11:35:29.595Z,61.15
2018-09-01T11:36:29.506Z,61.24
2018-09-01T11:37:29.414Z,61.15
2018-09-01T11:38:29.324Z,61.05
2018-09-01T11:39:29.235Z,61.92
2018-09-01T11:40:29.147Z,62.11
2018-09-01T11:41:29.050Z,61.46
2018-09-01T11:42:29.023Z,61.72
2018-09-01T11:43:28.873Z,61.92
2018-09-01T11:44:28.769Z,61.89
2018-09-01T11:45:28.677Z,62.11
2018-09-01T11:46:28.589Z,61.82
2018-09-01T11:47:28.491Z,61.82
2018-09-01T11:48:28.400Z,62.76
2018-09-01T11:49:28.317Z,62.30
2018-09-01T11:50:28.225Z,62.21
2018-09-01T11:51:28.130Z,61.82
2018-09-01T11:52:28.039Z,60.98
2018-09-01T11:53:27.993Z,61.27
2018-09-01T11:54:27.868Z,60.24
2018-09-01T11:55:27.783Z,58.17
2018-09-01T11:56:27.679Z,58.49
2018-09-01T11:57:27.584Z,59.27
2018-09-01T11:58:27.527Z,58.59
2018-09-01T11:59:27.414Z,58.78
2018-09-01T12:00:27.305Z,58.56
2018-09-01T12:01:27.215Z,59.14
2018-09-01T12:02:27.125Z,59.91
2018-09-01T12:03:27.040Z,59.72
2018-09-01T12:04:26.938Z,59.23
2018-09-01T12:05:26.848Z,58.72
2018-09-01T12:06:26.759Z,58.44
2018-09-01T12:07:26.662Z,59.40
2018-09-01T12:08:26.572Z,60.27
2018-09-01T12:09:26.569Z,59.89
2018-09-01T12:10:26.393Z,59.72
2018-09-01T12:11:26.306Z,59.79
2018-09-01T12:12:26.216Z,60.08
2018-09-01T12:13:26.117Z,60.37
2018-09-01T12:14:26.027Z,60.57
2018-09-01T12:15:25.941Z,60.27
2018-09-01T12:16:25.850Z,59.98
2018-09-01T12:17:25.760Z,60.75
2018-09-01T12:18:25.671Z,60.08
2018-09-01T12:19:25.576Z,59.79
2018-09-01T12:20:25.487Z,59.21
2018-09-01T12:21:25.395Z,59.31
2018-09-01T12:22:25.375Z,59.17
2018-09-01T12:23:25.210Z,57.04
2018-09-01T12:24:25.119Z,57.40
2018-09-01T12:25:25.031Z,56.85
2018-09-01T12:26:24.940Z,56.16
2018-09-01T12:27:24.853Z,57.14
2018-09-01T12:28:24.869Z,56.16
2018-09-01T12:29:24.667Z,57.11
2018-09-01T12:30:24.577Z,57.98
2018-09-01T12:31:24.490Z,58.27
2018-09-01T12:32:24.399Z,57.95
2018-09-01T12:33:24.305Z,58.53
2018-09-01T12:34:24.217Z,59.01
2018-09-01T12:35:24.153Z,59.50
2018-09-01T12:36:24.065Z,59.79
2018-09-01T12:37:23.958Z,60.08
2018-09-01T12:38:23.855Z,59.11
2018-09-01T12:39:23.759Z,59.33
2018-09-01T12:40:23.658Z,59.69
2018-09-01T12:41:23.827Z,59.50
2018-09-01T12:42:23.473Z,59.79
2018-09-01T12:43:23.386Z,60.47
2018-09-01T12:44:23.295Z,59.89
2018-09-01T12:45:23.199Z,59.82
2018-09-01T12:46:23.108Z,60.30
2018-09-01T12:47:23.023Z,59.14
2018-09-01T12:48:22.931Z,59.05
2018-09-01T12:49:22.843Z,58.56
2018-09-01T12:50:22.753Z,58.88
2018-09-01T12:51:22.657Z,58.39